createdAt,value
2019-02-06T00:01:29.801Z,63.28
2019-02-06T00:03:58.252Z,73.25
2019-02-06T00:06:26.952Z,81.35
2019-02-06T00:08:55.581Z,58.50
2019-02-06T00:11:24.006Z,67.35
2019-02-06T00:13:52.528Z,52.50
2019-02-06T00:16:21.354Z,61.30
2019-02-06T00:18:49.843Z,35.05
2019-02-06T00:21:20.501Z,54.77
2019-02-06T00:23:48.467Z,64.20
2019-02-06T00:26:17.069Z,38.02
2019-02-06T00:28:45.488Z,116.93
2019-02-06T00:31:13.914Z,156.15
2019-02-06T00:33:42.329Z,95.85
2019-02-06T00:36:10.757Z,98.45
2019-02-06T00:38:39.165Z,83.67
2019-02-06T00:41:07.974Z,77.00
2019-02-06T00:43:36.462Z,203.98
2019-02-06T00:46:05.375Z,126.18
2019-02-06T00:48:33.826Z,88.30
2019-02-06T00:51:02.236Z,48.63
2019-02-06T00:53:30.665Z,49.95
2019-02-06T00:55:59.144Z,75.75
2019-02-06T00:58:27.814Z,62.88
2019-02-06T01:00:56.267Z,62.38
2019-02-06T01:03:24.681Z,94.20
2019-02-06T01:05:53.145Z,116.67
2019-02-06T01:08:21.841Z,95.40
2019-02-06T01:10:50.540Z,53.40
2019-02-06T01:13:19.378Z,83.37
2019-02-06T01:15:47.796Z,43.90
2019-02-06T01:18:16.639Z,58.15
2019-02-06T01:20:45.287Z,43.75
2019-02-06T01:23:16.125Z,110.78
2019-02-06T01:25:43.897Z,112.88
2019-02-06T01:28:12.598Z,119.72
2019-02-06T01:30:45.450Z,44.85
2019-02-06T01:33:13.875Z,94.77
2019-02-06T01:35:49.524Z,74.50
2019-02-06T01:38:12.697Z,76.57
2019-02-06T01:40:41.109Z,38.85
2019-02-06T01:43:09.755Z,71.20
2019-02-06T01:45:38.580Z,39.20
2019-02-06T01:48:07.018Z,76.75
2019-02-06T01:50:35.443Z,77.97
2019-02-06T01:53:04.186Z,78.62
2019-02-06T01:55:32.614Z,59.15
2019-02-06T01:58:01.028Z,79.72
2019-02-06T02:00:29.813Z,48.02
2019-02-06T02:02:58.665Z,47.20
2019-02-06T02:05:27.093Z,124.72
2019-02-06T02:07:55.510Z,40.12
2019-02-06T02:10:24.074Z,31.20
2019-02-06T02:12:52.708Z,72.50
2019-02-06T02:15:21.169Z,35.68
2019-02-06T02:17:49.731Z,77.12
2019-02-06T02:20:22.935Z,43.25
2019-02-06T02:22:51.982Z,42.08
2019-02-06T02:25:21.286Z,38.05
2019-02-06T02:27:49.931Z,115.97
2019-02-06T02:30:23.401Z,106.40
2019-02-06T02:32:52.193Z,54.73
2019-02-06T02:35:20.612Z,56.02
2019-02-06T02:37:49.281Z,79.77
2019-02-06T02:40:17.971Z,97.65
2019-02-06T02:42:46.393Z,48.55
2019-02-06T02:45:17.330Z,48.38
2019-02-06T02:47:47.154Z,32.73
2019-02-06T02:50:15.959Z,53.70
2019-02-06T02:52:44.468Z,32.35
2019-02-06T02:55:14.470Z,49.85
2019-02-06T02:57:43.168Z,48.13
2019-02-06T03:00:21.647Z,33.28
2019-02-06T03:03:03.637Z,37.03
2019-02-06T03:05:33.849Z,30.72
2019-02-06T03:08:02.547Z,30.05
2019-02-06T03:10:31.014Z,30.82
2019-02-06T03:12:59.659Z,24.45
2019-02-06T03:15:28.121Z,43.40
2019-02-06T03:17:56.532Z,21.45
2019-02-06T03:20:25.197Z,27.00
2019-02-06T03:22:53.926Z,27.45
2019-02-06T03:25:22.413Z,32.48
2019-02-06T03:27:51.155Z,36.08
2019-02-06T03:30:20.144Z,31.15
2019-02-06T03:32:48.553Z,44.08
2019-02-06T03:35:17.097Z,33.25
2019-02-06T03:37:45.538Z,41.77
2019-02-06T03:40:18.690Z,29.27
2019-02-06T03:42:47.358Z,30.95
2019-02-06T03:45:16.186Z,22.93
2019-02-06T03:47:44.949Z,25.52
2019-02-06T03:50:19.282Z,31.90
2019-02-06T03:52:47.702Z,35.03
2019-02-06T03:55:16.425Z,20.95
2019-02-06T03:57:45.249Z,20.90
2019-02-06T04:00:16.279Z,29.52
2019-02-06T04:02:45.093Z,53.48
2019-02-06T04:05:14.142Z,25.50
2019-02-06T04:07:42.574Z,27.07
2019-02-06T04:10:18.637Z,29.23
2019-02-06T04:12:47.126Z,42.62
2019-02-06T04:15:16.859Z,25.90
2019-02-06T04:17:45.284Z,22.27
2019-02-06T04:20:15.029Z,55.38
2019-02-06T04:22:43.530Z,32.78
2019-02-06T04:25:13.777Z,29.15
2019-02-06T04:27:42.201Z,39.25
2019-02-06T04:30:16.310Z,30.97
2019-02-06T04:32:44.733Z,37.60
2019-02-06T04:35:14.191Z,27.98
2019-02-06T04:37:42.676Z,27.58
2019-02-06T04:40:14.211Z,34.80
2019-02-06T04:42:42.773Z,27.90
2019-02-06T04:45:13.586Z,34.25
2019-02-06T04:47:42.014Z,25.35
2019-02-06T04:50:12.667Z,29.63
2019-02-06T04:52:41.088Z,22.67
2019-02-06T04:55:15.632Z,21.23
2019-02-06T04:57:44.225Z,25.52
2019-02-06T05:00:21.131Z,26.02
2019-02-06T05:02:50.310Z,28.52
2019-02-06T05:05:18.813Z,23.85
2019-02-06T05:07:47.285Z,24.85
2019-02-06T05:10:15.940Z,28.42
2019-02-06T05:12:45.119Z,33.80
2019-02-06T05:15:15.700Z,37.17
2019-02-06T05:17:44.182Z,31.35
2019-02-06T05:20:24.751Z,29.12
2019-02-06T05:22:53.475Z,34.53
2019-02-06T05:25:21.942Z,27.62
2019-02-06T05:27:50.686Z,34.18
2019-02-06T05:30:19.109Z,26.75
2019-02-06T05:32:47.533Z,33.75
2019-02-06T05:35:15.957Z,30.68
2019-02-06T05:37:44.705Z,26.60
2019-02-06T05:40:13.298Z,30.60
2019-02-06T05:42:42.551Z,36.45
2019-02-06T05:45:12.564Z,32.08
2019-02-06T05:47:41.294Z,27.52
2019-02-06T05:50:18.211Z,32.30
2019-02-06T05:52:47.066Z,28.40
2019-02-06T05:55:17.248Z,30.97
2019-02-06T05:57:46.786Z,30.15
2019-02-06T06:00:18.994Z,33.30
2019-02-06T06:02:47.408Z,26.33
2019-02-06T06:05:15.837Z,30.27
2019-02-06T06:07:45.600Z,24.05
2019-02-06T06:10:17.142Z,28.60
2019-02-06T06:12:46.115Z,32.23
2019-02-06T06:15:20.594Z,35.92
2019-02-06T06:17:49.226Z,35.35
2019-02-06T06:20:19.831Z,26.95
2019-02-06T06:22:48.619Z,40.58
2019-02-06T06:25:19.001Z,33.73
2019-02-06T06:27:47.678Z,24.35
2019-02-06T06:30:18.543Z,30.70
2019-02-06T06:32:47.171Z,28.87
2019-02-06T06:35:15.722Z,33.95
2019-02-06T06:37:57.120Z,26.95
2019-02-06T06:40:20.888Z,24.32
2019-02-06T06:42:49.443Z,23.92
2019-02-06T06:45:20.670Z,25.17
2019-02-06T06:47:49.306Z,27.10
2019-02-06T06:50:19.902Z,27.42
2019-02-06T06:52:48.799Z,27.62
2019-02-06T06:55:17.451Z,27.93
2019-02-06T06:57:46.829Z,28.85
2019-02-06T07:00:26.222Z,39.08
2019-02-06T07:02:54.761Z,27.07
2019-02-06T07:05:23.314Z,27.15
2019-02-06T07:07:52.714Z,28.67
2019-02-06T07:10:21.483Z,30.75
2019-02-06T07:12:50.050Z,26.55
2019-02-06T07:15:30.245Z,21.80
2019-02-06T07:17:58.947Z,22.82
2019-02-06T07:20:27.435Z,24.77
2019-02-06T07:22:57.319Z,21.52
2019-02-06T07:25:25.884Z,20.00
2019-02-06T07:27:54.444Z,22.13
2019-02-06T07:30:27.628Z,17.25
2019-02-06T07:32:56.189Z,22.52
2019-02-06T07:35:24.670Z,19.82
2019-02-06T07:37:53.169Z,20.15
2019-02-06T07:40:21.721Z,23.15
2019-02-06T07:42:50.467Z,27.87
2019-02-06T07:45:19.909Z,18.92
2019-02-06T07:47:48.617Z,23.47
2019-02-06T07:50:25.709Z,24.20
2019-02-06T07:52:54.589Z,20.70
2019-02-06T07:55:22.999Z,30.10
2019-02-06T07:57:51.421Z,20.45
2019-02-06T08:00:19.837Z,20.92
2019-02-06T08:02:48.564Z,23.32
2019-02-06T08:05:21.697Z,25.90
2019-02-06T08:07:51.094Z,19.75
2019-02-06T08:10:27.641Z,19.25
2019-02-06T08:12:56.141Z,21.77
2019-02-06T08:15:24.976Z,16.75
2019-02-06T08:17:53.679Z,16.85
2019-02-06T08:20:23.884Z,18.55
2019-02-06T08:22:53.409Z,18.20
2019-02-06T08:25:25.565Z,21.35
2019-02-06T08:27:54.288Z,16.32
2019-02-06T08:30:28.637Z,19.37
2019-02-06T08:32:57.062Z,19.82
2019-02-06T08:35:25.794Z,17.80
2019-02-06T08:37:54.397Z,17.25
2019-02-06T08:40:25.881Z,17.07
2019-02-06T08:42:54.718Z,17.67
2019-02-06T08:45:23.169Z,20.82
2019-02-06T08:47:51.834Z,20.77
2019-02-06T08:50:22.135Z,19.75
2019-02-06T08:52:51.119Z,23.00
2019-02-06T08:55:24.809Z,16.52
2019-02-06T08:57:54.268Z,17.98
2019-02-06T09:00:27.910Z,19.20
2019-02-06T09:02:56.487Z,16.35
2019-02-06T09:05:25.887Z,28.83
2019-02-06T09:07:54.516Z,19.23
2019-02-06T09:10:28.212Z,19.73
2019-02-06T09:12:57.471Z,19.35
2019-02-06T09:15:27.430Z,18.70
2019-02-06T09:17:56.480Z,16.17
2019-02-06T09:20:26.878Z,19.48
2019-02-06T09:22:55.499Z,19.02
2019-02-06T09:25:25.484Z,19.05
2019-02-06T09:27:54.200Z,17.92
2019-02-06T09:30:28.138Z,19.00
2019-02-06T09:32:57.113Z,15.45
2019-02-06T09:35:26.083Z,24.45
2019-02-06T09:37:54.794Z,22.75
2019-02-06T09:40:25.522Z,23.38
2019-02-06T09:42:54.022Z,21.93
2019-02-06T09:45:22.742Z,20.52
2019-02-06T09:47:51.202Z,24.95
2019-02-06T09:50:28.674Z,19.10
2019-02-06T09:52:57.271Z,23.83
2019-02-06T09:55:25.708Z,18.77
2019-02-06T09:57:54.291Z,19.77
2019-02-06T10:00:27.513Z,17.25
2019-02-06T10:02:55.952Z,23.45
2019-02-06T10:05:25.032Z,24.35
2019-02-06T10:07:53.539Z,15.70
2019-02-06T10:10:24.230Z,27.77
2019-02-06T10:12:52.865Z,18.02
2019-02-06T10:15:27.170Z,18.62
2019-02-06T10:17:56.718Z,14.50
2019-02-06T10:20:33.990Z,16.93
2019-02-06T10:23:03.241Z,19.23
2019-02-06T10:25:31.731Z,22.42
2019-02-06T10:28:00.240Z,18.35
2019-02-06T10:30:34.664Z,17.50
2019-02-06T10:33:03.274Z,18.23
2019-02-06T10:35:31.712Z,18.32
2019-02-06T10:38:00.135Z,24.45
2019-02-06T10:40:28.563Z,20.52
2019-02-06T10:42:57.273Z,22.98
2019-02-06T10:45:26.010Z,24.40
2019-02-06T10:47:54.857Z,21.95
2019-02-06T10:50:32.111Z,20.55
2019-02-06T10:53:00.621Z,21.93
2019-02-06T10:55:30.544Z,18.55
2019-02-06T10:57:59.079Z,18.20
2019-02-06T11:00:39.108Z,18.48
2019-02-06T11:03:07.613Z,22.93
2019-02-06T11:05:36.184Z,19.90
2019-02-06T11:08:05.165Z,24.02
2019-02-06T11:10:33.595Z,24.12
2019-02-06T11:13:02.028Z,23.38
2019-02-06T11:15:32.483Z,20.12
2019-02-06T11:18:01.151Z,21.73
2019-02-06T11:20:32.866Z,20.88
2019-02-06T11:23:01.297Z,23.03
2019-02-06T11:25:29.761Z,20.53
2019-02-06T11:27:58.598Z,22.67
2019-02-06T11:30:29.874Z,25.00
2019-02-06T11:32:58.377Z,23.47
2019-02-06T11:35:27.106Z,20.60
2019-02-06T11:37:56.001Z,26.40
2019-02-06T11:40:25.188Z,17.80
2019-02-06T11:42:54.698Z,27.17
2019-02-06T11:45:31.517Z,20.47
2019-02-06T11:48:00.063Z,23.77
2019-02-06T11:50:30.253Z,22.90
2019-02-06T11:52:58.685Z,22.03
2019-02-06T11:55:29.446Z,23.87
2019-02-06T11:57:57.862Z,21.00
2019-02-06T12:00:31.151Z,27.07
2019-02-06T12:02:59.566Z,26.03
2019-02-06T12:05:28.062Z,23.00
2019-02-06T12:07:56.479Z,28.30
2019-02-06T12:10:24.905Z,23.30
2019-02-06T12:12:53.323Z,25.47
2019-02-06T12:15:22.394Z,31.37
2019-02-06T12:17:50.816Z,26.37
2019-02-06T12:20:26.068Z,25.50
2019-02-06T12:22:54.602Z,23.73
2019-02-06T12:25:23.043Z,25.20
2019-02-06T12:27:56.152Z,22.27
2019-02-06T12:30:30.538Z,23.20
2019-02-06T12:32:59.024Z,23.57
2019-02-06T12:35:27.722Z,23.20
2019-02-06T12:37:56.415Z,28.60
2019-02-06T12:40:24.983Z,24.80
2019-02-06T12:42:53.407Z,27.17
2019-02-06T12:45:23.536Z,27.00
2019-02-06T12:47:52.683Z,26.80
2019-02-06T12:50:24.824Z,23.23
2019-02-06T12:52:53.526Z,26.60
2019-02-06T12:55:37.840Z,31.60
2019-02-06T12:58:07.563Z,25.37
2019-02-06T13:00:43.795Z,27.23
2019-02-06T13:03:12.568Z,28.13
2019-02-06T13:05:41.030Z,28.30
2019-02-06T13:08:09.518Z,30.97
2019-02-06T13:10:38.011Z,36.00
2019-02-06T13:13:06.501Z,26.60
2019-02-06T13:15:35.484Z,37.03
2019-02-06T13:18:04.583Z,25.27
2019-02-06T13:20:35.314Z,30.83
2019-02-06T13:23:04.611Z,32.67
2019-02-06T13:25:33.042Z,35.23
2019-02-06T13:28:01.542Z,30.67
2019-02-06T13:30:35.769Z,26.90
2019-02-06T13:33:05.734Z,34.03
2019-02-06T13:35:34.174Z,36.00
2019-02-06T13:38:02.599Z,35.20
2019-02-06T13:40:31.027Z,45.50
2019-02-06T13:42:59.703Z,31.77
2019-02-06T13:45:40.740Z,30.70
2019-02-06T13:48:09.236Z,36.93
2019-02-06T13:50:37.791Z,29.53
2019-02-06T13:53:06.559Z,37.17
2019-02-06T13:55:35.191Z,31.63
2019-02-06T13:58:04.739Z,27.67
2019-02-06T14:00:41.348Z,32.70
2019-02-06T14:03:10.043Z,32.57
2019-02-06T14:05:39.507Z,28.77
2019-02-06T14:08:10.493Z,25.57
2019-02-06T14:10:39.230Z,29.37
2019-02-06T14:13:07.773Z,36.43
2019-02-06T14:15:44.615Z,33.47
2019-02-06T14:18:13.231Z,29.93
2019-02-06T14:20:42.400Z,34.53
2019-02-06T14:23:13.971Z,26.27
2019-02-06T14:26:02.467Z,23.63
2019-02-06T14:28:53.354Z,30.87
2019-02-06T14:31:33.418Z,26.97
2019-02-06T14:34:13.770Z,38.53
2019-02-06T14:36:51.331Z,30.40
2019-02-06T14:39:37.944Z,32.90
2019-02-06T14:42:27.524Z,33.77
2019-02-06T14:45:18.296Z,31.00
2019-02-06T14:47:53.430Z,37.20
2019-02-06T14:50:25.200Z,34.27
2019-02-06T14:52:56.774Z,43.37
2019-02-06T14:55:28.649Z,37.17
2019-02-06T14:58:16.474Z,41.80
2019-02-06T15:01:02.971Z,37.67
2019-02-06T15:03:35.772Z,39.20
2019-02-06T15:06:10.391Z,38.20
2019-02-06T15:08:53.623Z,41.57
2019-02-06T15:11:30.869Z,37.97
2019-02-06T15:14:02.406Z,35.83
2019-02-06T15:16:54.876Z,36.90
2019-02-06T15:19:41.224Z,35.50
2019-02-06T15:22:21.894Z,28.07
2019-02-06T15:25:17.033Z,34.55
2019-02-06T15:27:51.385Z,37.25
2019-02-06T15:30:34.902Z,42.20
2019-02-06T15:33:12.428Z,37.98
2019-02-06T15:36:00.510Z,49.58
2019-02-06T15:38:51.314Z,34.92
2019-02-06T15:41:31.190Z,31.80
2019-02-06T15:44:02.669Z,36.88
2019-02-06T15:46:40.237Z,45.48
2019-02-06T15:49:26.841Z,30.82
2019-02-06T15:52:01.075Z,34.15
2019-02-06T15:54:41.226Z,38.25
2019-02-06T15:57:37.074Z,37.70
2019-02-06T16:00:18.299Z,36.25
2019-02-06T16:03:01.739Z,36.45
2019-02-06T16:05:41.049Z,41.15
2019-02-06T16:08:30.936Z,49.60
2019-02-06T16:11:02.767Z,41.65
2019-02-06T16:13:43.394Z,41.88
2019-02-06T16:16:23.887Z,44.48
2019-02-06T16:18:58.709Z,42.83
2019-02-06T16:21:33.592Z,44.42
2019-02-06T16:24:26.094Z,52.75
2019-02-06T16:27:17.147Z,41.48
2019-02-06T16:30:00.961Z,47.88
2019-02-06T16:32:50.593Z,54.45
2019-02-06T16:35:22.375Z,49.63
2019-02-06T16:38:08.618Z,64.95
2019-02-06T16:40:48.886Z,54.55
2019-02-06T16:43:35.327Z,56.25
2019-02-06T16:46:36.848Z,41.95
2019-02-06T16:49:08.348Z,56.92
2019-02-06T16:51:42.590Z,58.45
2019-02-06T16:54:14.119Z,52.98
2019-02-06T16:57:00.600Z,59.58
2019-02-06T16:59:34.676Z,62.20
2019-02-06T17:02:30.219Z,57.25
2019-02-06T17:05:04.658Z,63.10
2019-02-06T17:07:59.098Z,59.73
2019-02-06T17:10:33.119Z,56.55
2019-02-06T17:13:20.164Z,59.25
2019-02-06T17:16:19.109Z,70.62
2019-02-06T17:18:59.766Z,65.67
2019-02-06T17:21:31.350Z,61.10
2019-02-06T17:24:24.075Z,62.15
2019-02-06T17:27:13.756Z,63.15
2019-02-06T17:29:45.373Z,66.72
2019-02-06T17:32:19.953Z,68.72
2019-02-06T17:34:57.605Z,81.67
2019-02-06T17:37:41.194Z,70.57
2019-02-06T17:40:30.488Z,60.38
2019-02-06T17:43:24.414Z,66.45
2019-02-06T17:46:01.422Z,78.65
2019-02-06T17:48:52.199Z,63.63
2019-02-06T17:51:23.959Z,55.00
2019-02-06T17:54:07.524Z,65.92
2019-02-06T17:56:36.280Z,65.50
2019-02-06T17:59:05.624Z,73.37
2019-02-06T18:01:34.463Z,71.28
2019-02-06T18:04:03.003Z,61.00
2019-02-06T18:06:31.599Z,63.05
2019-02-06T18:09:00.250Z,61.60
2019-02-06T18:11:29.401Z,64.60
2019-02-06T18:13:58.027Z,64.85
2019-02-06T18:16:26.831Z,80.72
2019-02-06T18:18:55.340Z,77.90
2019-02-06T18:21:23.910Z,72.17
2019-02-06T18:23:53.027Z,66.67
2019-02-06T18:26:21.518Z,68.22
2019-02-06T18:28:50.443Z,66.00
2019-02-06T18:31:19.035Z,65.15
2019-02-06T18:33:47.618Z,67.05
2019-02-06T18:36:16.144Z,70.50
2019-02-06T18:38:46.640Z,61.63
2019-02-06T18:41:14.870Z,61.13
2019-02-06T18:43:43.333Z,68.42
2019-02-06T18:46:11.822Z,67.55
2019-02-06T18:48:40.323Z,69.10
2019-02-06T18:51:08.831Z,68.47
2019-02-06T18:53:37.457Z,75.17
2019-02-06T18:56:06.344Z,72.40
2019-02-06T18:58:35.056Z,68.10
2019-02-06T19:01:04.458Z,67.60
2019-02-06T19:03:36.617Z,69.12
2019-02-06T19:06:05.296Z,66.00
2019-02-06T19:08:34.096Z,69.12
2019-02-06T19:11:02.682Z,63.48
2019-02-06T19:13:31.394Z,66.87
2019-02-06T19:16:00.053Z,66.37
2019-02-06T19:18:28.631Z,74.87
2019-02-06T19:20:57.117Z,65.57
2019-02-06T19:23:25.550Z,70.40
2019-02-06T19:25:54.490Z,56.08
2019-02-06T19:28:22.987Z,63.65
2019-02-06T19:30:51.465Z,62.55
2019-02-06T19:33:19.953Z,60.78
2019-02-06T19:35:48.462Z,66.60
2019-02-06T19:38:16.912Z,56.25
2019-02-06T19:40:45.716Z,57.10
2019-02-06T19:43:14.214Z,81.00
2019-02-06T19:45:42.655Z,64.65
2019-02-06T19:48:16.333Z,73.42
2019-02-06T19:50:46.197Z,71.42
2019-02-06T19:53:14.705Z,56.33
2019-02-06T19:55:43.232Z,59.48
2019-02-06T19:58:11.963Z,82.60
2019-02-06T20:00:40.444Z,66.17
2019-02-06T20:03:09.264Z,68.42
2019-02-06T20:05:37.825Z,63.87
2019-02-06T20:08:07.672Z,78.00
2019-02-06T20:10:45.003Z,61.92
2019-02-06T20:13:14.657Z,61.83
2019-02-06T20:15:43.223Z,71.53
2019-02-06T20:18:12.038Z,70.32
2019-02-06T20:20:40.466Z,66.92
2019-02-06T20:23:09.041Z,53.20
2019-02-06T20:25:37.548Z,63.98
2019-02-06T20:28:05.991Z,60.92
2019-02-06T20:30:35.018Z,62.73
2019-02-06T20:33:03.581Z,60.50
2019-02-06T20:35:32.199Z,75.45
2019-02-06T20:38:00.756Z,60.55
2019-02-06T20:40:34.890Z,58.23
2019-02-06T20:43:03.407Z,55.65
2019-02-06T20:45:31.910Z,53.28
2019-02-06T20:48:00.423Z,66.05
2019-02-06T20:50:31.603Z,46.50
2019-02-06T20:53:00.465Z,70.92
2019-02-06T20:55:30.752Z,62.65
2019-02-06T20:58:00.738Z,59.40
2019-02-06T21:00:31.585Z,47.53
2019-02-06T21:03:00.322Z,54.95
2019-02-06T21:05:28.746Z,53.68
2019-02-06T21:07:57.575Z,68.90
2019-02-06T21:10:31.365Z,57.38
2019-02-06T21:12:59.936Z,51.90
2019-02-06T21:15:28.688Z,82.15
2019-02-06T21:17:57.166Z,105.17
2019-02-06T21:20:26.073Z,49.40
2019-02-06T21:22:54.547Z,51.83
2019-02-06T21:25:24.410Z,57.03
2019-02-06T21:27:52.905Z,78.33
2019-02-06T21:30:23.470Z,57.40
2019-02-06T21:32:53.108Z,67.55
2019-02-06T21:35:21.518Z,65.20
2019-02-06T21:37:50.098Z,76.22
2019-02-06T21:40:21.280Z,51.92
2019-02-06T21:42:49.775Z,65.17
2019-02-06T21:45:18.271Z,82.72
2019-02-06T21:47:47.100Z,58.17
2019-02-06T21:50:18.598Z,73.12
2019-02-06T21:52:47.300Z,60.52
2019-02-06T21:55:19.015Z,49.65
2019-02-06T21:57:47.442Z,75.50
2019-02-06T22:00:26.374Z,66.37
2019-02-06T22:02:54.950Z,60.35
2019-02-06T22:05:23.501Z,62.85
2019-02-06T22:07:52.206Z,64.00
2019-02-06T22:10:23.018Z,60.25
2019-02-06T22:12:51.581Z,63.63
2019-02-06T22:15:28.841Z,105.32
2019-02-06T22:17:57.688Z,57.75
2019-02-06T22:20:26.813Z,66.62
2019-02-06T22:22:55.645Z,86.55
2019-02-06T22:25:24.121Z,95.10
2019-02-06T22:27:52.550Z,80.67
2019-02-06T22:30:26.609Z,120.17
2019-02-06T22:32:55.096Z,145.30
2019-02-06T22:35:24.004Z,152.17
2019-02-06T22:37:52.771Z,87.35
2019-02-06T22:40:23.084Z,78.47
2019-02-06T22:42:51.578Z,63.23
2019-02-06T22:45:22.515Z,106.35
2019-02-06T22:47:51.168Z,50.15
2019-02-06T22:50:24.902Z,87.20
2019-02-06T22:52:53.309Z,74.72
2019-02-06T22:55:21.814Z,54.35
2019-02-06T22:57:50.364Z,142.93
2019-02-06T23:00:44.390Z,126.05
2019-02-06T23:03:12.881Z,72.03
2019-02-06T23:05:41.313Z,133.67
2019-02-06T23:08:10.011Z,148.75
2019-02-06T23:10:38.763Z,90.65
2019-02-06T23:13:08.555Z,92.65
2019-02-06T23:15:37.433Z,137.88
2019-02-06T23:18:05.993Z,103.42
2019-02-06T23:20:34.727Z,47.10
2019-02-06T23:23:03.211Z,48.80
2019-02-06T23:25:31.639Z,52.15
2019-02-06T23:28:00.055Z,71.87
2019-02-06T23:30:28.898Z,55.67
2019-02-06T23:32:57.317Z,165.15
2019-02-06T23:35:25.747Z,69.80
2019-02-06T23:37:54.159Z,74.55
2019-02-06T23:40:22.806Z,43.92
2019-02-06T23:42:51.257Z,91.63
2019-02-06T23:45:19.958Z,66.17
2019-02-06T23:47:48.634Z,83.52
2019-02-06T23:50:17.584Z,51.33
2019-02-06T23:52:46.214Z,162.77
2019-02-06T23:55:14.930Z,59.13
2019-02-06T23:57:43.658Z,41.58
